createdAt,value
2019-04-06T00:02:17.071Z,7.00
2019-04-06T00:04:45.590Z,7.00
2019-04-06T00:07:14.040Z,7.00
2019-04-06T00:09:42.550Z,7.00
2019-04-06T00:12:11.035Z,7.00
2019-04-06T00:14:39.372Z,6.90
2019-04-06T00:17:07.968Z,6.80
2019-04-06T00:19:36.461Z,6.80
2019-04-06T00:22:05.206Z,6.80
2019-04-06T00:24:33.936Z,6.80
2019-04-06T00:27:02.348Z,6.80
2019-04-06T00:29:30.683Z,6.80
2019-04-06T00:32:00.893Z,6.90
2019-04-06T00:34:29.347Z,6.90
2019-04-06T00:36:57.840Z,6.80
2019-04-06T00:39:26.400Z,6.90
2019-04-06T00:41:54.729Z,6.80
2019-04-06T00:44:23.204Z,6.80
2019-04-06T00:46:51.729Z,6.70
2019-04-06T00:49:20.206Z,6.70
2019-04-06T00:51:48.906Z,6.60
2019-04-06T00:54:17.319Z,6.50
2019-04-06T00:56:45.741Z,6.40
2019-04-06T00:59:14.053Z,6.40
2019-04-06T01:01:42.575Z,6.30
2019-04-06T01:04:11.018Z,6.20
2019-04-06T01:06:39.354Z,6.10
2019-04-06T01:09:09.151Z,6.10
2019-04-06T01:11:37.740Z,6.10
2019-04-06T01:14:06.138Z,6.00
2019-04-06T01:16:34.519Z,6.00
2019-04-06T01:19:03.118Z,6.00
2019-04-06T01:21:31.441Z,6.00
2019-04-06T01:24:00.067Z,6.00
2019-04-06T01:26:28.627Z,6.00
2019-04-06T01:28:57.198Z,6.00
2019-04-06T01:31:25.519Z,6.00
2019-04-06T01:33:53.860Z,6.00
2019-04-06T01:36:22.345Z,6.00
2019-04-06T01:38:50.858Z,6.00
2019-04-06T01:41:19.168Z,6.00
2019-04-06T01:43:48.214Z,6.00
2019-04-06T01:46:16.590Z,6.00
2019-04-06T01:48:45.229Z,6.00
2019-04-06T01:51:13.607Z,6.00
2019-04-06T01:53:42.452Z,6.00
2019-04-06T01:56:18.381Z,5.90
2019-04-06T01:58:40.980Z,5.90
2019-04-06T02:01:29.336Z,5.90
2019-04-06T02:03:58.063Z,5.90
2019-04-06T02:06:26.797Z,5.80
2019-04-06T02:08:55.464Z,5.80
2019-04-06T02:11:24.005Z,5.80
2019-04-06T02:13:52.514Z,5.90
2019-04-06T02:16:20.908Z,5.80
2019-04-06T02:18:49.682Z,5.80
2019-04-06T02:21:18.129Z,5.80
2019-04-06T02:23:46.647Z,5.90
2019-04-06T02:26:14.960Z,5.80
2019-04-06T02:28:43.574Z,5.90
2019-04-06T02:31:13.762Z,5.90
2019-04-06T02:33:59.910Z,5.90
2019-04-06T02:36:46.261Z,5.80
2019-04-06T02:39:22.441Z,5.80
2019-04-06T02:41:52.670Z,5.80
2019-04-06T02:44:21.014Z,5.80
2019-04-06T02:46:49.410Z,5.70
2019-04-06T02:49:17.736Z,5.70
2019-04-06T02:51:46.124Z,5.70
2019-04-06T02:54:14.704Z,5.70
2019-04-06T02:56:46.206Z,5.70
2019-04-06T02:59:13.427Z,5.70
2019-04-06T03:01:41.757Z,5.70
2019-04-06T03:04:10.170Z,5.60
2019-04-06T03:06:38.501Z,5.60
2019-04-06T03:09:06.923Z,5.60
2019-04-06T03:11:35.587Z,5.60
2019-04-06T03:14:04.349Z,5.60
2019-04-06T03:16:32.698Z,5.60
2019-04-06T03:19:01.251Z,5.60
2019-04-06T03:21:29.582Z,5.60
2019-04-06T03:23:58.090Z,5.50
2019-04-06T03:26:26.413Z,5.50
2019-04-06T03:28:54.808Z,5.50
2019-04-06T03:31:26.975Z,5.50
2019-04-06T03:33:53.209Z,5.50
2019-04-06T03:36:21.783Z,5.50
2019-04-06T03:38:50.582Z,5.60
2019-04-06T03:41:19.084Z,5.60
2019-04-06T03:43:47.678Z,5.60
2019-04-06T03:46:16.346Z,5.60
2019-04-06T03:48:44.843Z,5.60
2019-04-06T03:51:13.498Z,5.60
2019-04-06T03:53:41.924Z,5.60
2019-04-06T03:56:10.381Z,5.70
2019-04-06T03:58:38.715Z,5.70
2019-04-06T04:01:07.020Z,5.70
2019-04-06T04:03:35.807Z,5.70
2019-04-06T04:06:04.382Z,5.70
2019-04-06T04:08:32.961Z,5.80
2019-04-06T04:11:01.568Z,5.80
2019-04-06T04:13:30.004Z,5.80
2019-04-06T04:15:58.324Z,5.80
2019-04-06T04:18:26.655Z,5.90
2019-04-06T04:20:55.144Z,5.90
2019-04-06T04:23:23.539Z,5.90
2019-04-06T04:25:52.190Z,5.90
2019-04-06T04:28:20.779Z,5.90
2019-04-06T04:30:49.599Z,6.00
2019-04-06T04:33:18.010Z,6.00
2019-04-06T04:35:46.783Z,6.00
2019-04-06T04:38:15.550Z,6.00
2019-04-06T04:40:44.361Z,6.00
2019-04-06T04:43:12.912Z,6.10
2019-04-06T04:45:41.580Z,6.10
2019-04-06T04:48:10.102Z,6.10
2019-04-06T04:50:38.461Z,6.10
2019-04-06T04:53:06.947Z,6.20
2019-04-06T04:55:35.791Z,6.10
2019-04-06T04:58:04.328Z,6.10
2019-04-06T05:00:33.111Z,6.10
2019-04-06T05:03:01.603Z,6.20
2019-04-06T05:05:30.295Z,6.20
2019-04-06T05:07:59.647Z,6.20
2019-04-06T05:10:28.091Z,6.30
2019-04-06T05:12:56.632Z,6.30
2019-04-06T05:15:33.650Z,6.30
2019-04-06T05:18:01.955Z,6.30
2019-04-06T05:20:30.534Z,6.30
2019-04-06T05:22:58.905Z,6.30
2019-04-06T05:25:27.287Z,6.40
2019-04-06T05:27:55.777Z,6.40
2019-04-06T05:30:24.370Z,6.50
2019-04-06T05:32:52.681Z,6.50
2019-04-06T05:35:21.269Z,6.60
2019-04-06T05:37:49.921Z,6.60
2019-04-06T05:40:18.695Z,6.60
2019-04-06T05:42:47.446Z,6.60
2019-04-06T05:45:16.458Z,6.60
2019-04-06T05:47:45.163Z,6.70
2019-04-06T05:50:13.605Z,6.70
2019-04-06T05:52:42.419Z,6.80
2019-04-06T05:55:14.039Z,6.80
2019-04-06T05:57:42.591Z,6.90
2019-04-06T06:00:11.529Z,7.00
2019-04-06T06:02:41.765Z,7.00
2019-04-06T06:05:11.138Z,7.00
2019-04-06T06:07:39.771Z,7.00
2019-04-06T06:10:08.757Z,7.10
2019-04-06T06:12:37.321Z,7.10
2019-04-06T06:15:07.368Z,7.10
2019-04-06T06:17:36.061Z,7.10
2019-04-06T06:20:08.281Z,7.20
2019-04-06T06:22:36.787Z,7.20
2019-04-06T06:25:07.987Z,7.30
2019-04-06T06:27:36.486Z,7.40
2019-04-06T06:30:08.651Z,7.50
2019-04-06T06:32:36.995Z,7.60
2019-04-06T06:35:06.069Z,7.70
2019-04-06T06:37:34.394Z,7.70
2019-04-06T06:40:03.402Z,7.80
2019-04-06T06:42:31.794Z,7.90
2019-04-06T06:45:00.382Z,8.00
2019-04-06T06:47:28.873Z,8.10
2019-04-06T06:49:57.572Z,8.10
2019-04-06T06:52:25.947Z,8.20
2019-04-06T06:54:54.783Z,8.30
2019-04-06T06:57:23.118Z,8.40
2019-04-06T06:59:53.288Z,8.60
2019-04-06T07:02:29.096Z,8.60
2019-04-06T07:04:57.445Z,8.60
2019-04-06T07:07:28.620Z,8.60
2019-04-06T07:10:05.006Z,8.50
2019-04-06T07:12:27.256Z,8.50
2019-04-06T07:14:55.777Z,8.40
2019-04-06T07:17:24.143Z,8.30
2019-04-06T07:19:52.733Z,8.40
2019-04-06T07:22:21.383Z,8.40
2019-04-06T07:24:49.734Z,8.50
2019-04-06T07:27:18.210Z,8.60
2019-04-06T07:29:46.678Z,8.60
2019-04-06T07:32:15.275Z,8.80
2019-04-06T07:34:44.010Z,8.90
2019-04-06T07:37:12.359Z,8.80
2019-04-06T07:39:41.034Z,8.80
2019-04-06T07:42:09.652Z,8.80
2019-04-06T07:44:38.121Z,8.80
2019-04-06T07:47:06.535Z,8.90
2019-04-06T07:49:34.871Z,9.00
2019-04-06T07:52:03.216Z,9.10
2019-04-06T07:54:31.880Z,9.20
2019-04-06T07:57:00.324Z,9.40
2019-04-06T07:59:28.808Z,9.40
2019-04-06T08:01:57.565Z,9.50
2019-04-06T08:04:26.247Z,9.60
2019-04-06T08:06:54.666Z,9.60
2019-04-06T08:09:23.487Z,9.70
2019-04-06T08:11:51.813Z,9.80
2019-04-06T08:14:20.580Z,9.90
2019-04-06T08:16:48.910Z,9.90
2019-04-06T08:19:17.581Z,9.90
2019-04-06T08:21:46.324Z,9.90
2019-04-06T08:24:15.144Z,10.00
2019-04-06T08:26:46.028Z,10.00
2019-04-06T08:29:13.760Z,10.10
2019-04-06T08:31:42.268Z,10.30
2019-04-06T08:34:13.290Z,10.50
2019-04-06T08:36:40.948Z,10.70
2019-04-06T08:39:09.472Z,10.90
2019-04-06T08:41:38.116Z,11.10
2019-04-06T08:44:06.864Z,11.30
2019-04-06T08:46:35.677Z,11.50
2019-04-06T08:49:04.427Z,11.70
2019-04-06T08:51:32.969Z,11.60
2019-04-06T08:54:01.394Z,11.70
2019-04-06T08:56:30.082Z,11.70
2019-04-06T08:58:58.693Z,11.90
2019-04-06T09:01:27.278Z,11.80
2019-04-06T09:03:55.773Z,11.70
2019-04-06T09:06:24.250Z,11.70
2019-04-06T09:08:52.690Z,11.60
2019-04-06T09:11:21.246Z,11.70
2019-04-06T09:13:50.138Z,11.60
2019-04-06T09:16:18.663Z,11.50
2019-04-06T09:18:49.239Z,11.50
2019-04-06T09:21:17.488Z,11.50
2019-04-06T09:23:45.952Z,11.40
2019-04-06T09:26:14.291Z,11.50
2019-04-06T09:28:42.696Z,11.50
2019-04-06T09:31:11.043Z,11.60
2019-04-06T09:33:40.227Z,11.80
2019-04-06T09:36:08.845Z,12.00
2019-04-06T09:38:37.557Z,12.10
2019-04-06T09:41:06.259Z,12.30
2019-04-06T09:43:35.030Z,12.40
2019-04-06T09:46:14.098Z,12.50
2019-04-06T09:48:59.557Z,12.50
2019-04-06T09:51:32.351Z,12.70
2019-04-06T09:54:18.454Z,12.90
2019-04-06T09:56:49.111Z,13.20
2019-04-06T09:59:38.009Z,13.30
2019-04-06T10:02:14.539Z,13.40
2019-04-06T10:04:47.555Z,13.60
2019-04-06T10:07:33.961Z,13.50
2019-04-06T10:10:12.787Z,13.40
2019-04-06T10:12:58.962Z,13.20
2019-04-06T10:15:47.515Z,13.40
2019-04-06T10:18:17.958Z,13.40
2019-04-06T10:20:48.387Z,13.50
2019-04-06T10:23:18.485Z,13.50
2019-04-06T10:25:51.455Z,13.50
2019-04-06T10:28:24.567Z,13.70
2019-04-06T10:31:11.040Z,14.00
2019-04-06T10:33:41.293Z,14.30
2019-04-06T10:36:17.366Z,14.50
2019-04-06T10:39:03.727Z,14.60
2019-04-06T10:41:50.461Z,14.60
2019-04-06T10:44:29.313Z,14.80
2019-04-06T10:47:08.390Z,15.20
2019-04-06T10:49:41.281Z,15.50
2019-04-06T10:52:20.124Z,15.80
2019-04-06T10:54:59.138Z,16.00
2019-04-06T10:57:41.382Z,16.00
2019-04-06T11:00:29.904Z,16.00
2019-04-06T11:03:00.285Z,16.30
2019-04-06T11:05:30.508Z,16.60
2019-04-06T11:08:03.459Z,16.90
2019-04-06T11:10:33.511Z,17.00
2019-04-06T11:13:03.503Z,17.00
2019-04-06T11:15:39.649Z,17.00
2019-04-06T11:18:26.386Z,17.00
2019-04-06T11:21:14.772Z,16.80
2019-04-06T11:23:50.302Z,16.50
2019-04-06T11:26:36.873Z,16.50
2019-04-06T11:29:12.898Z,16.50
2019-04-06T11:31:42.904Z,16.80
2019-04-06T11:34:12.915Z,17.00
2019-04-06T11:36:46.392Z,17.20
2019-04-06T11:39:16.707Z,17.60
2019-04-06T11:41:55.905Z,17.80
2019-04-06T11:44:28.836Z,17.70
2019-04-06T11:47:02.021Z,17.30
2019-04-06T11:49:32.196Z,16.80
2019-04-06T11:52:04.867Z,16.80
2019-04-06T11:54:44.336Z,17.40
2019-04-06T11:57:17.195Z,18.10
2019-04-06T11:59:56.271Z,19.10
2019-04-06T12:02:28.939Z,19.90
2019-04-06T12:05:04.947Z,20.80
2019-04-06T12:07:51.411Z,21.70
2019-04-06T12:10:22.044Z,21.90
2019-04-06T12:12:58.231Z,22.20
2019-04-06T12:15:28.269Z,22.00
2019-04-06T12:18:04.588Z,22.60
2019-04-06T12:20:46.422Z,22.70
2019-04-06T12:23:22.649Z,23.20
2019-04-06T12:26:01.844Z,23.50
2019-04-06T12:28:31.873Z,23.60
2019-04-06T12:33:59.981Z,23.30
2019-04-06T12:36:32.396Z,24.10
2019-04-06T12:39:08.254Z,24.50
2019-04-06T12:41:44.533Z,24.70
2019-04-06T12:44:26.233Z,24.40
2019-04-06T12:47:06.580Z,24.00
2019-04-06T12:49:36.617Z,24.10
2019-04-06T12:52:06.751Z,24.00
2019-04-06T12:54:53.438Z,23.70
2019-04-06T12:57:32.631Z,23.90
2019-04-06T13:00:05.467Z,23.90
2019-04-06T13:02:44.673Z,23.60
2019-04-06T13:05:17.881Z,23.20
2019-04-06T13:07:47.989Z,23.40
2019-04-06T13:10:20.673Z,24.40
2019-04-06T13:12:59.710Z,25.60
2019-04-06T13:15:32.878Z,26.50
2019-04-06T13:18:19.450Z,27.00
2019-04-06T13:20:52.375Z,26.20
2019-04-06T13:23:34.933Z,26.00
2019-04-06T13:26:08.638Z,26.00
2019-04-06T13:28:51.484Z,25.80
2019-04-06T13:31:24.627Z,25.50
2019-04-06T13:33:57.354Z,25.50
2019-04-06T13:36:27.466Z,24.40
2019-04-06T13:38:57.628Z,23.20
2019-04-06T13:41:37.189Z,21.80
2019-04-06T13:44:07.454Z,21.20
2019-04-06T13:46:37.617Z,21.50
2019-04-06T13:49:13.788Z,21.80
2019-04-06T13:51:52.921Z,21.90
2019-04-06T13:54:38.847Z,21.50
2019-04-06T13:57:14.887Z,21.40
2019-04-06T14:00:01.527Z,21.50
2019-04-06T14:02:31.668Z,21.50
2019-04-06T14:05:08.433Z,21.90
2019-04-06T14:07:47.671Z,22.10
2019-04-06T14:10:23.745Z,22.50
2019-04-06T14:13:10.009Z,22.50
2019-04-06T14:15:40.140Z,22.30
2019-04-06T14:18:16.191Z,22.10
2019-04-06T14:21:04.496Z,21.90
2019-04-06T14:23:34.977Z,22.00
2019-04-06T14:26:17.468Z,22.20
2019-04-06T14:28:56.710Z,22.40
2019-04-06T14:31:30.807Z,21.80
2019-04-06T14:34:09.955Z,21.60
2019-04-06T14:36:56.607Z,21.80
2019-04-06T14:39:26.623Z,22.10
2019-04-06T14:41:59.411Z,22.20
2019-04-06T14:44:45.087Z,22.00
2019-04-06T14:47:18.109Z,21.50
2019-04-06T14:50:06.479Z,21.40
2019-04-06T14:52:55.030Z,21.40
2019-04-06T14:55:34.045Z,21.20
2019-04-06T14:58:04.203Z,21.10
2019-04-06T15:00:50.822Z,21.30
2019-04-06T15:03:21.277Z,21.70
2019-04-06T15:06:03.705Z,22.20
2019-04-06T15:08:33.740Z,22.10
2019-04-06T15:11:18.974Z,22.10
2019-04-06T15:13:55.252Z,22.10
2019-04-06T15:16:34.724Z,22.00
2019-04-06T15:19:11.005Z,21.50
2019-04-06T15:21:44.058Z,21.40
2019-04-06T15:24:20.196Z,21.50
2019-04-06T15:26:59.196Z,21.30
2019-04-06T15:29:29.219Z,21.30
2019-04-06T15:31:59.470Z,21.20
2019-04-06T15:34:32.691Z,21.30
2019-04-06T15:37:03.166Z,21.40
2019-04-06T15:39:39.233Z,21.30
2019-04-06T15:42:26.863Z,21.10
2019-04-06T15:44:57.071Z,20.90
2019-04-06T15:47:45.531Z,20.60
2019-04-06T15:50:15.769Z,20.50
2019-04-06T15:52:51.569Z,20.40
2019-04-06T15:55:21.738Z,20.10
2019-04-06T15:58:06.907Z,19.70
2019-04-06T16:00:37.233Z,19.20
2019-04-06T16:03:07.443Z,19.00
2019-04-06T16:05:37.766Z,19.10
2019-04-06T16:08:16.374Z,19.30
2019-04-06T16:10:49.153Z,19.30
2019-04-06T16:13:35.466Z,19.30
2019-04-06T16:16:14.477Z,19.20
2019-04-06T16:19:02.772Z,19.20
2019-04-06T16:21:44.970Z,18.80
2019-04-06T16:24:15.140Z,18.70
2019-04-06T16:26:48.386Z,18.80
2019-04-06T16:29:24.784Z,18.90
2019-04-06T16:31:57.514Z,18.80
2019-04-06T16:34:30.840Z,18.80
2019-04-06T16:37:06.897Z,18.40
2019-04-06T16:39:40.224Z,18.10
2019-04-06T16:42:19.540Z,17.60
2019-04-06T16:44:49.631Z,17.20
2019-04-06T16:47:22.745Z,16.90
2019-04-06T16:50:09.520Z,16.60
2019-04-06T16:52:58.552Z,16.40
2019-04-06T16:55:44.909Z,16.20
2019-04-06T16:58:18.341Z,16.00
2019-04-06T17:00:48.780Z,15.90
2019-04-06T17:03:19.253Z,15.60
2019-04-06T17:05:55.229Z,15.40
2019-04-06T17:08:28.176Z,15.30
2019-04-06T17:11:01.355Z,15.20
2019-04-06T17:13:49.829Z,15.00
2019-04-06T17:16:28.682Z,14.90
2019-04-06T17:19:04.653Z,14.90
2019-04-06T17:21:41.303Z,14.80
2019-04-06T17:24:11.530Z,14.70
2019-04-06T17:26:48.118Z,14.80
2019-04-06T17:29:34.914Z,14.80
2019-04-06T17:32:05.625Z,14.70
2019-04-06T17:34:36.051Z,14.60
2019-04-06T17:37:12.356Z,14.60
2019-04-06T17:39:45.548Z,14.60
2019-04-06T17:42:15.818Z,14.60
2019-04-06T17:45:02.628Z,14.50
2019-04-06T17:47:36.094Z,14.40
2019-04-06T17:50:19.846Z,14.30
2019-04-06T17:53:06.503Z,14.10
2019-04-06T17:55:37.062Z,13.90
2019-04-06T17:58:08.384Z,13.80
2019-04-06T18:00:41.640Z,13.70
2019-04-06T18:03:17.458Z,13.50
2019-04-06T18:05:50.762Z,13.50
2019-04-06T18:08:30.443Z,13.40
2019-04-06T18:11:09.945Z,13.30
2019-04-06T18:13:50.974Z,13.30
2019-04-06T18:16:21.863Z,13.20
2019-04-06T18:18:51.089Z,13.10
2019-04-06T18:21:20.015Z,13.10
2019-04-06T18:23:48.814Z,13.00
2019-04-06T18:26:19.135Z,13.00
2019-04-06T18:28:48.405Z,13.00
2019-04-06T18:31:19.105Z,13.00
2019-04-06T18:33:48.154Z,12.90
2019-04-06T18:36:18.158Z,12.90
2019-04-06T18:38:54.799Z,12.90
2019-04-06T18:41:23.940Z,12.90
2019-04-06T18:43:52.500Z,12.90
2019-04-06T18:46:20.984Z,12.90
2019-04-06T18:48:49.454Z,12.90
2019-04-06T18:51:18.159Z,12.90
2019-04-06T18:53:47.022Z,12.80
2019-04-06T18:56:15.621Z,12.70
2019-04-06T18:58:44.061Z,12.60
2019-04-06T19:01:12.416Z,12.60
2019-04-06T19:03:41.304Z,12.50
2019-04-06T19:06:09.819Z,12.50
2019-04-06T19:08:39.174Z,12.40
2019-04-06T19:11:08.106Z,12.40
2019-04-06T19:13:36.535Z,12.20
2019-04-06T19:16:05.006Z,12.10
2019-04-06T19:18:33.450Z,12.10
2019-04-06T19:21:01.834Z,12.00
2019-04-06T19:23:30.185Z,12.00
2019-04-06T19:25:59.077Z,12.00
2019-04-06T19:28:27.694Z,11.90
2019-04-06T19:30:56.686Z,11.90
2019-04-06T19:33:25.939Z,11.80
2019-04-06T19:35:55.141Z,11.80
2019-04-06T19:38:23.681Z,11.70
2019-04-06T19:40:52.131Z,11.70
2019-04-06T19:43:20.477Z,11.80
2019-04-06T19:45:49.005Z,11.80
2019-04-06T19:48:17.823Z,11.80
2019-04-06T19:50:46.514Z,11.70
2019-04-06T19:53:15.248Z,11.60
2019-04-06T19:55:43.753Z,11.60
2019-04-06T19:58:12.580Z,11.50
2019-04-06T20:00:41.318Z,11.50
2019-04-06T20:03:10.078Z,11.40
2019-04-06T20:05:39.001Z,11.40
2019-04-06T20:08:08.095Z,11.40
2019-04-06T20:10:36.824Z,11.30
2019-04-06T20:13:07.245Z,11.30
2019-04-06T20:15:36.253Z,11.20
2019-04-06T20:18:04.997Z,11.20
2019-04-06T20:20:34.197Z,11.20
2019-04-06T20:23:02.857Z,11.20
2019-04-06T20:25:31.236Z,11.20
2019-04-06T20:28:00.375Z,11.10
2019-04-06T20:30:28.979Z,11.10
2019-04-06T20:32:57.456Z,11.00
2019-04-06T20:35:26.130Z,10.90
2019-04-06T20:37:54.859Z,10.80
2019-04-06T20:40:23.428Z,10.90
2019-04-06T20:42:51.782Z,10.90
2019-04-06T20:45:20.452Z,10.90
2019-04-06T20:47:48.775Z,10.80
2019-04-06T20:50:17.182Z,10.80
2019-04-06T20:52:46.018Z,10.80
2019-04-06T20:55:14.554Z,10.80
2019-04-06T20:57:45.016Z,10.80
2019-04-06T21:00:14.108Z,10.80
2019-04-06T21:02:42.975Z,10.60
2019-04-06T21:05:12.458Z,10.50
2019-04-06T21:07:41.510Z,10.40
2019-04-06T21:10:11.010Z,10.30
2019-04-06T21:12:39.748Z,10.20
2019-04-06T21:15:17.061Z,10.20
2019-04-06T21:17:38.672Z,10.10
2019-04-06T21:20:07.509Z,10.10
2019-04-06T21:22:35.941Z,10.10
2019-04-06T21:25:05.016Z,10.00
2019-04-06T21:27:34.095Z,10.00
2019-04-06T21:30:03.397Z,9.90
2019-04-06T21:32:32.566Z,9.90
2019-04-06T21:35:03.205Z,9.90
2019-04-06T21:37:31.410Z,9.90
2019-04-06T21:39:59.970Z,9.90
2019-04-06T21:42:28.650Z,9.90
2019-04-06T21:44:57.196Z,9.80
2019-04-06T21:47:25.551Z,9.80
2019-04-06T21:49:54.343Z,9.80
2019-04-06T21:52:22.923Z,9.70
2019-04-06T21:54:51.874Z,9.70
2019-04-06T21:57:20.475Z,9.70
2019-04-06T21:59:49.752Z,9.60
2019-04-06T22:02:18.414Z,9.60
2019-04-06T22:04:46.910Z,9.50
2019-04-06T22:07:15.556Z,9.50
2019-04-06T22:09:44.069Z,9.50
2019-04-06T22:12:12.550Z,9.60
2019-04-06T22:14:40.981Z,9.50
2019-04-06T22:17:10.053Z,9.50
2019-04-06T22:19:39.163Z,9.50
2019-04-06T22:22:07.786Z,9.50
2019-04-06T22:24:36.094Z,9.50
2019-04-06T22:27:05.296Z,9.50
2019-04-06T22:29:34.270Z,9.50
2019-04-06T22:32:02.791Z,9.40
2019-04-06T22:34:39.427Z,9.40
2019-04-06T22:37:01.521Z,9.40
2019-04-06T22:39:29.977Z,9.40
2019-04-06T22:41:58.473Z,9.30
2019-04-06T22:44:27.117Z,9.30
2019-04-06T22:46:55.615Z,9.20
2019-04-06T22:49:24.017Z,9.10
2019-04-06T22:51:52.853Z,9.00
2019-04-06T22:54:21.490Z,8.90
2019-04-06T22:56:49.879Z,8.90
2019-04-06T22:59:18.827Z,8.80
2019-04-06T23:01:47.317Z,8.80
2019-04-06T23:04:20.361Z,8.80
2019-04-06T23:06:50.435Z,8.80
2019-04-06T23:09:18.742Z,8.80
2019-04-06T23:11:47.115Z,8.80
2019-04-06T23:14:15.737Z,8.70
2019-04-06T23:16:44.739Z,8.70
2019-04-06T23:19:13.319Z,8.60
2019-04-06T23:21:41.705Z,8.60
2019-04-06T23:24:10.242Z,8.50
2019-04-06T23:26:39.756Z,8.50
2019-04-06T23:29:08.787Z,8.40
2019-04-06T23:31:37.298Z,8.50
2019-04-06T23:34:06.691Z,8.50
2019-04-06T23:36:35.110Z,8.40
2019-04-06T23:39:05.766Z,8.40
2019-04-06T23:41:34.661Z,8.40
2019-04-06T23:44:03.186Z,8.30
2019-04-06T23:46:31.857Z,8.10
2019-04-06T23:49:02.424Z,8.00
2019-04-06T23:51:30.730Z,8.00
2019-04-06T23:53:59.155Z,8.10
2019-04-06T23:56:27.681Z,8.10
2019-04-06T23:58:56.169Z,8.20
